sensor_id;sensor_type;location;lat;lon;timestamp;P1;durP1;ratioP1;P2;durP2;ratioP2
27424;SDS011;15244;49.088;11.886;2023-02-28T00:00:35;4.60;;;4.30;;
27424;SDS011;15244;49.088;11.886;2023-02-28T00:05:38;4.70;;;4.40;;
27424;SDS011;15244;49.088;11.886;2023-02-28T00:10:39;5.35;;;4.82;;
27424;SDS011;15244;49.088;11.886;2023-02-28T00:15:41;5.60;;;5.05;;
27424;SDS011;15244;49.088;11.886;2023-02-28T00:20:42;5.45;;;4.22;;
27424;SDS011;15244;49.088;11.886;2023-02-28T00:25:44;6.47;;;4.47;;
27424;SDS011;15244;49.088;11.886;2023-02-28T00:30:46;5.30;;;4.68;;
27424;SDS011;15244;49.088;11.886;2023-02-28T00:35:48;4.82;;;4.38;;
27424;SDS011;15244;49.088;11.886;2023-02-28T00:40:50;7.10;;;5.05;;
27424;SDS011;15244;49.088;11.886;2023-02-28T00:45:51;5.60;;;5.10;;
27424;SDS011;15244;49.088;11.886;2023-02-28T00:50:53;5.53;;;5.03;;
27424;SDS011;15244;49.088;11.886;2023-02-28T00:55:55;5.97;;;4.80;;
27424;SDS011;15244;49.088;11.886;2023-02-28T01:00:56;5.43;;;4.55;;
27424;SDS011;15244;49.088;11.886;2023-02-28T01:05:58;5.43;;;4.28;;
27424;SDS011;15244;49.088;11.886;2023-02-28T01:11:06;6.07;;;4.85;;
27424;SDS011;15244;49.088;11.886;2023-02-28T01:16:09;7.15;;;5.32;;
27424;SDS011;15244;49.088;11.886;2023-02-28T01:21:12;6.78;;;5.18;;
27424;SDS011;15244;49.088;11.886;2023-02-28T01:26:17;4.80;;;4.30;;
27424;SDS011;15244;49.088;11.886;2023-02-28T01:31:22;5.30;;;4.80;;
27424;SDS011;15244;49.088;11.886;2023-02-28T01:36:25;6.95;;;5.00;;
27424;SDS011;15244;49.088;11.886;2023-02-28T01:41:28;5.28;;;4.78;;
27424;SDS011;15244;49.088;11.886;2023-02-28T01:46:34;5.55;;;5.05;;
27424;SDS011;15244;49.088;11.886;2023-02-28T01:51:46;5.82;;;5.15;;
27424;SDS011;15244;49.088;11.886;2023-02-28T01:56:55;5.18;;;4.75;;
27424;SDS011;15244;49.088;11.886;2023-02-28T02:01:59;6.03;;;5.25;;
27424;SDS011;15244;49.088;11.886;2023-02-28T02:07:01;6.82;;;5.00;;
27424;SDS011;15244;49.088;11.886;2023-02-28T02:12:07;5.10;;;4.70;;
27424;SDS011;15244;49.088;11.886;2023-02-28T02:17:34;6.43;;;5.40;;
27424;SDS011;15244;49.088;11.886;2023-02-28T02:23:01;5.72;;;5.13;;
27424;SDS011;15244;49.088;11.886;2023-02-28T02:39:31;6.25;;;5.65;;
27424;SDS011;15244;49.088;11.886;2023-02-28T02:44:49;6.68;;;5.55;;
27424;SDS011;15244;49.088;11.886;2023-02-28T02:49:59;7.95;;;5.55;;
27424;SDS011;15244;49.088;11.886;2023-02-28T02:55:07;6.28;;;5.68;;
27424;SDS011;15244;49.088;11.886;2023-02-28T03:00:12;6.45;;;5.85;;
27424;SDS011;15244;49.088;11.886;2023-02-28T03:05:24;8.60;;;6.13;;
27424;SDS011;15244;49.088;11.886;2023-02-28T03:10:37;6.70;;;6.00;;
27424;SDS011;15244;49.088;11.886;2023-02-28T03:15:47;8.18;;;6.30;;
27424;SDS011;15244;49.088;11.886;2023-02-28T03:21:08;7.00;;;6.30;;
27424;SDS011;15244;49.088;11.886;2023-02-28T03:26:22;6.53;;;5.82;;
27424;SDS011;15244;49.088;11.886;2023-02-28T03:31:28;9.95;;;6.50;;
27424;SDS011;15244;49.088;11.886;2023-02-28T03:36:38;10.93;;;6.43;;
27424;SDS011;15244;49.088;11.886;2023-02-28T03:41:51;9.02;;;7.07;;
27424;SDS011;15244;49.088;11.886;2023-02-28T03:47:12;9.55;;;7.00;;
27424;SDS011;15244;49.088;11.886;2023-02-28T03:52:19;8.10;;;6.50;;
27424;SDS011;15244;49.088;11.886;2023-02-28T04:02:41;10.45;;;7.75;;
27424;SDS011;15244;49.088;11.886;2023-02-28T04:07:42;9.82;;;7.72;;
27424;SDS011;15244;49.088;11.886;2023-02-28T04:12:44;8.80;;;7.88;;
27424;SDS011;15244;49.088;11.886;2023-02-28T04:17:45;9.95;;;8.25;;
27424;SDS011;15244;49.088;11.886;2023-02-28T04:22:47;10.50;;;7.90;;
27424;SDS011;15244;49.088;11.886;2023-02-28T04:27:48;8.85;;;7.82;;
27424;SDS011;15244;49.088;11.886;2023-02-28T04:32:50;14.10;;;9.00;;
27424;SDS011;15244;49.088;11.886;2023-02-28T04:37:51;9.88;;;8.30;;
27424;SDS011;15244;49.088;11.886;2023-02-28T04:42:53;12.68;;;8.48;;
27424;SDS011;15244;49.088;11.886;2023-02-28T04:47:54;10.40;;;8.35;;
27424;SDS011;15244;49.088;11.886;2023-02-28T04:52:56;11.82;;;8.52;;
27424;SDS011;15244;49.088;11.886;2023-02-28T04:57:58;13.48;;;9.85;;
27424;SDS011;15244;49.088;11.886;2023-02-28T05:02:59;10.82;;;8.30;;
27424;SDS011;15244;49.088;11.886;2023-02-28T05:08:01;13.55;;;8.85;;
27424;SDS011;15244;49.088;11.886;2023-02-28T05:13:02;14.75;;;8.93;;
27424;SDS011;15244;49.088;11.886;2023-02-28T05:18:04;13.85;;;8.93;;
27424;SDS011;15244;49.088;11.886;2023-02-28T05:23:06;14.10;;;9.05;;
27424;SDS011;15244;49.088;11.886;2023-02-28T05:28:07;12.00;;;9.10;;
27424;SDS011;15244;49.088;11.886;2023-02-28T05:33:10;13.65;;;9.38;;
27424;SDS011;15244;49.088;11.886;2023-02-28T05:38:12;12.60;;;9.40;;
27424;SDS011;15244;49.088;11.886;2023-02-28T05:43:14;11.70;;;9.35;;
27424;SDS011;15244;49.088;11.886;2023-02-28T05:48:15;16.52;;;9.95;;
27424;SDS011;15244;49.088;11.886;2023-02-28T05:53:18;11.02;;;9.20;;
27424;SDS011;15244;49.088;11.886;2023-02-28T05:58:19;12.05;;;9.20;;
27424;SDS011;15244;49.088;11.886;2023-02-28T06:03:22;11.70;;;9.52;;
27424;SDS011;15244;49.088;11.886;2023-02-28T06:08:23;11.15;;;8.77;;
27424;SDS011;15244;49.088;11.886;2023-02-28T06:13:25;12.13;;;9.27;;
27424;SDS011;15244;49.088;11.886;2023-02-28T06:18:26;10.95;;;8.95;;
27424;SDS011;15244;49.088;11.886;2023-02-28T06:23:28;11.27;;;9.55;;
27424;SDS011;15244;49.088;11.886;2023-02-28T06:28:30;16.13;;;10.10;;
27424;SDS011;15244;49.088;11.886;2023-02-28T06:33:33;14.43;;;9.05;;
27424;SDS011;15244;49.088;11.886;2023-02-28T06:38:35;13.95;;;9.43;;
27424;SDS011;15244;49.088;11.886;2023-02-28T06:43:39;15.02;;;9.57;;
27424;SDS011;15244;49.088;11.886;2023-02-28T06:48:43;15.70;;;9.45;;
27424;SDS011;15244;49.088;11.886;2023-02-28T06:53:46;12.27;;;9.13;;
27424;SDS011;15244;49.088;11.886;2023-02-28T06:58:48;9.35;;;8.35;;
27424;SDS011;15244;49.088;11.886;2023-02-28T07:03:51;10.90;;;8.70;;
27424;SDS011;15244;49.088;11.886;2023-02-28T07:08:53;11.18;;;8.23;;
27424;SDS011;15244;49.088;11.886;2023-02-28T07:13:56;9.23;;;8.32;;
27424;SDS011;15244;49.088;11.886;2023-02-28T07:18:58;11.52;;;8.77;;
27424;SDS011;15244;49.088;11.886;2023-02-28T07:24:00;12.10;;;8.23;;
27424;SDS011;15244;49.088;11.886;2023-02-28T07:29:01;11.68;;;9.43;;
27424;SDS011;15244;49.088;11.886;2023-02-28T07:34:03;12.57;;;8.27;;
27424;SDS011;15244;49.088;11.886;2023-02-28T07:39:05;9.13;;;7.63;;
27424;SDS011;15244;49.088;11.886;2023-02-28T07:44:06;13.82;;;9.38;;
27424;SDS011;15244;49.088;11.886;2023-02-28T07:49:08;10.90;;;8.70;;
27424;SDS011;15244;49.088;11.886;2023-02-28T07:54:09;13.90;;;8.98;;
27424;SDS011;15244;49.088;11.886;2023-02-28T07:59:11;16.98;;;9.02;;
27424;SDS011;15244;49.088;11.886;2023-02-28T08:04:12;17.80;;;9.48;;
27424;SDS011;15244;49.088;11.886;2023-02-28T08:09:14;11.50;;;9.13;;
27424;SDS011;15244;49.088;11.886;2023-02-28T08:14:15;13.52;;;9.82;;
27424;SDS011;15244;49.088;11.886;2023-02-28T08:19:17;10.93;;;8.45;;
27424;SDS011;15244;49.088;11.886;2023-02-28T08:24:19;12.68;;;9.68;;
27424;SDS011;15244;49.088;11.886;2023-02-28T08:29:20;14.45;;;9.15;;
27424;SDS011;15244;49.088;11.886;2023-02-28T08:34:22;13.05;;;9.98;;
27424;SDS011;15244;49.088;11.886;2023-02-28T08:39:24;11.48;;;8.98;;
27424;SDS011;15244;49.088;11.886;2023-02-28T08:44:26;15.88;;;10.00;;
27424;SDS011;15244;49.088;11.886;2023-02-28T08:49:28;11.38;;;9.02;;
27424;SDS011;15244;49.088;11.886;2023-02-28T08:54:30;11.20;;;8.82;;
27424;SDS011;15244;49.088;11.886;2023-02-28T08:59:33;13.35;;;9.45;;
27424;SDS011;15244;49.088;11.886;2023-02-28T09:04:35;12.73;;;9.93;;
27424;SDS011;15244;49.088;11.886;2023-02-28T09:09:36;17.27;;;9.43;;
27424;SDS011;15244;49.088;11.886;2023-02-28T09:14:38;16.30;;;9.32;;
27424;SDS011;15244;49.088;11.886;2023-02-28T09:19:40;13.70;;;8.90;;
27424;SDS011;15244;49.088;11.886;2023-02-28T09:24:41;14.32;;;9.32;;
27424;SDS011;15244;49.088;11.886;2023-02-28T09:29:43;13.98;;;9.60;;
27424;SDS011;15244;49.088;11.886;2023-02-28T09:34:44;11.73;;;8.65;;
27424;SDS011;15244;49.088;11.886;2023-02-28T09:39:46;12.02;;;8.45;;
27424;SDS011;15244;49.088;11.886;2023-02-28T09:44:48;13.27;;;9.38;;
27424;SDS011;15244;49.088;11.886;2023-02-28T09:49:51;18.10;;;9.30;;
27424;SDS011;15244;49.088;11.886;2023-02-28T09:54:53;13.13;;;9.13;;
27424;SDS011;15244;49.088;11.886;2023-02-28T10:05:14;14.07;;;9.80;;
27424;SDS011;15244;49.088;11.886;2023-02-28T10:10:20;14.32;;;9.02;;
27424;SDS011;15244;49.088;11.886;2023-02-28T10:15:26;9.80;;;8.75;;
27424;SDS011;15244;49.088;11.886;2023-02-28T10:20:35;10.88;;;9.05;;
27424;SDS011;15244;49.088;11.886;2023-02-28T10:25:41;9.90;;;8.30;;
27424;SDS011;15244;49.088;11.886;2023-02-28T10:30:50;12.48;;;9.43;;
27424;SDS011;15244;49.088;11.886;2023-02-28T10:35:53;11.75;;;9.20;;
27424;SDS011;15244;49.088;11.886;2023-02-28T10:46:15;14.45;;;9.02;;
27424;SDS011;15244;49.088;11.886;2023-02-28T10:51:27;13.77;;;9.82;;
27424;SDS011;15244;49.088;11.886;2023-02-28T10:56:37;10.80;;;8.25;;
27424;SDS011;15244;49.088;11.886;2023-02-28T11:01:40;11.75;;;8.45;;
27424;SDS011;15244;49.088;11.886;2023-02-28T11:06:42;11.27;;;9.07;;
27424;SDS011;15244;49.088;11.886;2023-02-28T11:11:45;12.02;;;8.48;;
27424;SDS011;15244;49.088;11.886;2023-02-28T11:16:48;9.90;;;8.63;;
27424;SDS011;15244;49.088;11.886;2023-02-28T11:21:55;14.45;;;9.18;;
27424;SDS011;15244;49.088;11.886;2023-02-28T11:27:00;12.10;;;8.60;;
27424;SDS011;15244;49.088;11.886;2023-02-28T11:37:24;16.08;;;10.00;;
27424;SDS011;15244;49.088;11.886;2023-02-28T11:47:48;7.93;;;6.97;;
27424;SDS011;15244;49.088;11.886;2023-02-28T11:58:31;10.25;;;8.43;;
27424;SDS011;15244;49.088;11.886;2023-02-28T12:03:45;13.15;;;7.55;;
27424;SDS011;15244;49.088;11.886;2023-02-28T12:09:12;9.63;;;7.93;;
27424;SDS011;15244;49.088;11.886;2023-02-28T12:14:32;10.80;;;8.23;;
27424;SDS011;15244;49.088;11.886;2023-02-28T12:30:22;12.90;;;8.15;;
27424;SDS011;15244;49.088;11.886;2023-02-28T12:35:36;13.77;;;9.38;;
27424;SDS011;15244;49.088;11.886;2023-02-28T12:40:48;12.27;;;9.15;;
27424;SDS011;15244;49.088;11.886;2023-02-28T12:46:02;12.88;;;8.18;;
27424;SDS011;15244;49.088;11.886;2023-02-28T12:51:12;17.65;;;9.55;;
27424;SDS011;15244;49.088;11.886;2023-02-28T13:01:33;12.40;;;7.90;;
27424;SDS011;15244;49.088;11.886;2023-02-28T13:12:13;12.82;;;8.88;;
27424;SDS011;15244;49.088;11.886;2023-02-28T13:17:18;10.30;;;8.43;;
27424;SDS011;15244;49.088;11.886;2023-02-28T13:27:37;11.52;;;8.73;;
27424;SDS011;15244;49.088;11.886;2023-02-28T13:32:41;10.85;;;8.60;;
27424;SDS011;15244;49.088;11.886;2023-02-28T13:37:44;12.98;;;8.85;;
27424;SDS011;15244;49.088;11.886;2023-02-28T13:42:46;10.75;;;8.48;;
27424;SDS011;15244;49.088;11.886;2023-02-28T13:48:33;9.93;;;7.70;;
27424;SDS011;15244;49.088;11.886;2023-02-28T13:53:29;10.88;;;8.73;;
27424;SDS011;15244;49.088;11.886;2023-02-28T13:59:01;10.13;;;8.68;;
27424;SDS011;15244;49.088;11.886;2023-02-28T14:10:04;10.95;;;8.50;;
27424;SDS011;15244;49.088;11.886;2023-02-28T14:20:33;9.88;;;8.30;;
27424;SDS011;15244;49.088;11.886;2023-02-28T14:31:00;11.13;;;8.00;;
27424;SDS011;15244;49.088;11.886;2023-02-28T14:36:10;8.60;;;7.32;;
27424;SDS011;15244;49.088;11.886;2023-02-28T14:41:28;10.43;;;7.90;;
27424;SDS011;15244;49.088;11.886;2023-02-28T14:46:36;10.82;;;8.43;;
27424;SDS011;15244;49.088;11.886;2023-02-28T14:51:41;8.90;;;7.88;;
27424;SDS011;15244;49.088;11.886;2023-02-28T14:56:43;12.15;;;7.95;;
27424;SDS011;15244;49.088;11.886;2023-02-28T15:01:45;9.98;;;8.60;;
27424;SDS011;15244;49.088;11.886;2023-02-28T15:06:54;9.85;;;8.07;;
27424;SDS011;15244;49.088;11.886;2023-02-28T15:12:10;8.90;;;7.18;;
27424;SDS011;15244;49.088;11.886;2023-02-28T15:17:18;9.65;;;7.55;;
27424;SDS011;15244;49.088;11.886;2023-02-28T15:22:28;10.15;;;7.70;;
27424;SDS011;15244;49.088;11.886;2023-02-28T15:27:39;11.57;;;7.72;;
27424;SDS011;15244;49.088;11.886;2023-02-28T15:38:25;11.20;;;8.30;;
27424;SDS011;15244;49.088;11.886;2023-02-28T15:43:29;9.82;;;7.65;;
27424;SDS011;15244;49.088;11.886;2023-02-28T15:48:33;12.80;;;8.32;;
27424;SDS011;15244;49.088;11.886;2023-02-28T15:53:46;10.25;;;8.45;;
27424;SDS011;15244;49.088;11.886;2023-02-28T15:58:55;9.48;;;8.07;;
27424;SDS011;15244;49.088;11.886;2023-02-28T16:03:59;12.75;;;9.00;;
27424;SDS011;15244;49.088;11.886;2023-02-28T16:09:04;12.93;;;8.80;;
27424;SDS011;15244;49.088;11.886;2023-02-28T16:14:11;11.85;;;9.75;;
27424;SDS011;15244;49.088;11.886;2023-02-28T16:19:17;13.15;;;9.23;;
27424;SDS011;15244;49.088;11.886;2023-02-28T16:24:18;13.10;;;10.30;;
27424;SDS011;15244;49.088;11.886;2023-02-28T16:29:31;10.70;;;8.88;;
27424;SDS011;15244;49.088;11.886;2023-02-28T16:34:36;11.63;;;9.55;;
27424;SDS011;15244;49.088;11.886;2023-02-28T16:39:37;17.15;;;10.45;;
27424;SDS011;15244;49.088;11.886;2023-02-28T16:44:39;11.73;;;10.25;;
27424;SDS011;15244;49.088;11.886;2023-02-28T16:49:41;13.35;;;9.95;;
27424;SDS011;15244;49.088;11.886;2023-02-28T16:54:44;16.63;;;12.45;;
27424;SDS011;15244;49.088;11.886;2023-02-28T16:59:45;19.27;;;11.70;;
27424;SDS011;15244;49.088;11.886;2023-02-28T17:04:47;17.02;;;12.20;;
27424;SDS011;15244;49.088;11.886;2023-02-28T17:09:49;15.40;;;10.93;;
27424;SDS011;15244;49.088;11.886;2023-02-28T17:14:50;15.48;;;11.50;;
27424;SDS011;15244;49.088;11.886;2023-02-28T17:19:52;19.42;;;12.50;;
27424;SDS011;15244;49.088;11.886;2023-02-28T17:24:53;14.43;;;12.15;;
27424;SDS011;15244;49.088;11.886;2023-02-28T17:29:58;16.75;;;12.32;;
27424;SDS011;15244;49.088;11.886;2023-02-28T17:35:01;20.92;;;12.65;;
27424;SDS011;15244;49.088;11.886;2023-02-28T17:40:02;18.50;;;13.43;;
27424;SDS011;15244;49.088;11.886;2023-02-28T17:45:05;17.38;;;13.10;;
27424;SDS011;15244;49.088;11.886;2023-02-28T17:50:11;17.77;;;14.30;;
27424;SDS011;15244;49.088;11.886;2023-02-28T17:55:15;19.65;;;14.38;;
27424;SDS011;15244;49.088;11.886;2023-02-28T18:00:17;17.08;;;13.93;;
27424;SDS011;15244;49.088;11.886;2023-02-28T18:05:19;19.30;;;14.27;;
27424;SDS011;15244;49.088;11.886;2023-02-28T18:10:21;23.90;;;14.30;;
27424;SDS011;15244;49.088;11.886;2023-02-28T18:15:23;19.02;;;14.18;;
27424;SDS011;15244;49.088;11.886;2023-02-28T18:20:25;22.15;;;15.10;;
27424;SDS011;15244;49.088;11.886;2023-02-28T18:25:27;25.23;;;15.70;;
27424;SDS011;15244;49.088;11.886;2023-02-28T18:30:29;26.83;;;17.00;;
27424;SDS011;15244;49.088;11.886;2023-02-28T18:35:33;23.52;;;16.13;;
27424;SDS011;15244;49.088;11.886;2023-02-28T18:40:35;23.63;;;15.85;;
27424;SDS011;15244;49.088;11.886;2023-02-28T18:45:38;26.20;;;17.25;;
27424;SDS011;15244;49.088;11.886;2023-02-28T18:50:40;21.85;;;15.13;;
27424;SDS011;15244;49.088;11.886;2023-02-28T18:55:42;21.48;;;14.73;;
27424;SDS011;15244;49.088;11.886;2023-02-28T19:00:44;28.17;;;16.80;;
27424;SDS011;15244;49.088;11.886;2023-02-28T19:05:48;23.92;;;16.35;;
27424;SDS011;15244;49.088;11.886;2023-02-28T19:10:51;20.95;;;15.70;;
27424;SDS011;15244;49.088;11.886;2023-02-28T19:15:59;21.77;;;16.08;;
27424;SDS011;15244;49.088;11.886;2023-02-28T19:21:02;27.83;;;16.63;;
27424;SDS011;15244;49.088;11.886;2023-02-28T19:26:05;27.50;;;16.13;;
27424;SDS011;15244;49.088;11.886;2023-02-28T19:31:11;23.38;;;17.00;;
27424;SDS011;15244;49.088;11.886;2023-02-28T19:36:14;27.45;;;17.02;;
27424;SDS011;15244;49.088;11.886;2023-02-28T19:41:16;28.98;;;17.95;;
27424;SDS011;15244;49.088;11.886;2023-02-28T19:46:18;25.67;;;16.30;;
27424;SDS011;15244;49.088;11.886;2023-02-28T19:51:20;23.88;;;16.48;;
27424;SDS011;15244;49.088;11.886;2023-02-28T19:56:23;22.40;;;15.77;;
27424;SDS011;15244;49.088;11.886;2023-02-28T20:01:24;28.10;;;17.90;;
27424;SDS011;15244;49.088;11.886;2023-02-28T20:06:26;22.70;;;15.57;;
27424;SDS011;15244;49.088;11.886;2023-02-28T20:11:28;24.65;;;16.52;;
27424;SDS011;15244;49.088;11.886;2023-02-28T20:16:30;29.33;;;17.05;;
27424;SDS011;15244;49.088;11.886;2023-02-28T20:21:32;25.75;;;16.85;;
27424;SDS011;15244;49.088;11.886;2023-02-28T20:26:34;30.67;;;18.42;;
27424;SDS011;15244;49.088;11.886;2023-02-28T20:31:37;28.02;;;17.77;;
27424;SDS011;15244;49.088;11.886;2023-02-28T20:36:38;26.95;;;17.77;;
27424;SDS011;15244;49.088;11.886;2023-02-28T20:41:40;26.60;;;17.35;;
27424;SDS011;15244;49.088;11.886;2023-02-28T20:46:42;27.38;;;17.67;;
27424;SDS011;15244;49.088;11.886;2023-02-28T20:51:44;25.73;;;16.98;;
27424;SDS011;15244;49.088;11.886;2023-02-28T20:56:45;27.58;;;17.45;;
27424;SDS011;15244;49.088;11.886;2023-02-28T21:01:47;27.90;;;17.67;;
27424;SDS011;15244;49.088;11.886;2023-02-28T21:06:49;36.65;;;18.55;;
27424;SDS011;15244;49.088;11.886;2023-02-28T21:11:52;28.08;;;17.63;;
27424;SDS011;15244;49.088;11.886;2023-02-28T21:16:54;25.45;;;18.08;;
27424;SDS011;15244;49.088;11.886;2023-02-28T21:21:56;27.77;;;17.33;;
27424;SDS011;15244;49.088;11.886;2023-02-28T21:26:58;24.20;;;16.95;;
27424;SDS011;15244;49.088;11.886;2023-02-28T21:32:01;26.05;;;16.83;;
27424;SDS011;15244;49.088;11.886;2023-02-28T21:37:03;30.65;;;17.90;;
27424;SDS011;15244;49.088;11.886;2023-02-28T21:42:07;25.40;;;16.63;;
27424;SDS011;15244;49.088;11.886;2023-02-28T21:47:09;27.02;;;17.77;;
27424;SDS011;15244;49.088;11.886;2023-02-28T21:52:10;24.33;;;16.90;;
27424;SDS011;15244;49.088;11.886;2023-02-28T21:57:12;28.08;;;17.20;;
27424;SDS011;15244;49.088;11.886;2023-02-28T22:02:14;27.23;;;18.08;;
27424;SDS011;15244;49.088;11.886;2023-02-28T22:07:16;26.35;;;17.65;;
27424;SDS011;15244;49.088;11.886;2023-02-28T22:12:18;30.02;;;17.52;;
27424;SDS011;15244;49.088;11.886;2023-02-28T22:17:19;30.08;;;18.25;;
27424;SDS011;15244;49.088;11.886;2023-02-28T22:22:21;27.10;;;17.55;;
27424;SDS011;15244;49.088;11.886;2023-02-28T22:27:23;25.75;;;17.13;;
27424;SDS011;15244;49.088;11.886;2023-02-28T22:32:24;30.42;;;18.50;;
27424;SDS011;15244;49.088;11.886;2023-02-28T22:37:26;26.92;;;17.63;;
27424;SDS011;15244;49.088;11.886;2023-02-28T22:42:27;28.45;;;18.33;;
27424;SDS011;15244;49.088;11.886;2023-02-28T22:47:33;28.05;;;18.08;;
27424;SDS011;15244;49.088;11.886;2023-02-28T22:52:34;28.90;;;19.05;;
27424;SDS011;15244;49.088;11.886;2023-02-28T22:57:39;28.65;;;16.77;;
27424;SDS011;15244;49.088;11.886;2023-02-28T23:02:41;32.28;;;18.33;;
27424;SDS011;15244;49.088;11.886;2023-02-28T23:07:43;25.30;;;17.15;;
27424;SDS011;15244;49.088;11.886;2023-02-28T23:12:46;29.13;;;17.90;;
27424;SDS011;15244;49.088;11.886;2023-02-28T23:17:50;29.38;;;18.80;;
27424;SDS011;15244;49.088;11.886;2023-02-28T23:22:52;25.55;;;16.80;;
27424;SDS011;15244;49.088;11.886;2023-02-28T23:27:53;27.08;;;17.40;;
27424;SDS011;15244;49.088;11.886;2023-02-28T23:32:55;28.05;;;17.75;;
27424;SDS011;15244;49.088;11.886;2023-02-28T23:37:56;26.65;;;18.10;;
27424;SDS011;15244;49.088;11.886;2023-02-28T23:43:02;29.25;;;18.63;;
27424;SDS011;15244;49.088;11.886;2023-02-28T23:48:04;29.77;;;17.92;;
27424;SDS011;15244;49.088;11.886;2023-02-28T23:53:06;28.45;;;17.83;;
27424;SDS011;15244;49.088;11.886;2023-02-28T23:58:08;23.40;;;16.77;;
